sensor_id;sensor_type;location;lat;lon;timestamp;P1;durP1;ratioP1;P2;durP2;ratioP2
9924;SDS011;5001;51.674;7.868;2024-03-08T00:00:09;29.90;;;26.90;;
9924;SDS011;5001;51.674;7.868;2024-03-08T00:02:41;29.43;;;26.23;;
9924;SDS011;5001;51.674;7.868;2024-03-08T00:05:09;30.93;;;27.17;;
9924;SDS011;5001;51.674;7.868;2024-03-08T00:07:36;30.63;;;26.90;;
9924;SDS011;5001;51.674;7.868;2024-03-08T00:10:05;29.17;;;26.03;;
9924;SDS011;5001;51.674;7.868;2024-03-08T00:12:33;30.00;;;26.80;;
9924;SDS011;5001;51.674;7.868;2024-03-08T00:15:01;31.77;;;25.93;;
9924;SDS011;5001;51.674;7.868;2024-03-08T00:17:28;30.40;;;26.47;;
9924;SDS011;5001;51.674;7.868;2024-03-08T00:19:55;29.67;;;26.53;;
9924;SDS011;5001;51.674;7.868;2024-03-08T00:22:23;29.80;;;26.70;;
9924;SDS011;5001;51.674;7.868;2024-03-08T00:24:50;31.90;;;27.03;;
9924;SDS011;5001;51.674;7.868;2024-03-08T00:27:17;31.30;;;28.10;;
9924;SDS011;5001;51.674;7.868;2024-03-08T00:29:47;29.67;;;26.47;;
9924;SDS011;5001;51.674;7.868;2024-03-08T00:32:14;28.53;;;25.57;;
9924;SDS011;5001;51.674;7.868;2024-03-08T00:34:43;28.80;;;25.87;;
9924;SDS011;5001;51.674;7.868;2024-03-08T00:37:10;31.27;;;27.80;;
9924;SDS011;5001;51.674;7.868;2024-03-08T00:39:37;28.60;;;25.70;;
9924;SDS011;5001;51.674;7.868;2024-03-08T00:42:04;30.53;;;27.40;;
9924;SDS011;5001;51.674;7.868;2024-03-08T00:44:31;29.83;;;26.27;;
9924;SDS011;5001;51.674;7.868;2024-03-08T00:46:58;29.63;;;26.70;;
9924;SDS011;5001;51.674;7.868;2024-03-08T00:49:25;30.17;;;27.07;;
9924;SDS011;5001;51.674;7.868;2024-03-08T00:51:52;30.03;;;26.63;;
9924;SDS011;5001;51.674;7.868;2024-03-08T00:54:19;29.30;;;26.20;;
9924;SDS011;5001;51.674;7.868;2024-03-08T00:56:46;30.07;;;26.83;;
9924;SDS011;5001;51.674;7.868;2024-03-08T00:59:13;30.57;;;27.30;;
9924;SDS011;5001;51.674;7.868;2024-03-08T01:01:40;30.37;;;27.17;;
9924;SDS011;5001;51.674;7.868;2024-03-08T01:04:07;30.43;;;27.03;;
9924;SDS011;5001;51.674;7.868;2024-03-08T01:06:34;28.23;;;25.33;;
9924;SDS011;5001;51.674;7.868;2024-03-08T01:09:01;29.83;;;26.60;;
9924;SDS011;5001;51.674;7.868;2024-03-08T01:11:29;32.40;;;26.73;;
9924;SDS011;5001;51.674;7.868;2024-03-08T01:13:56;30.40;;;26.47;;
9924;SDS011;5001;51.674;7.868;2024-03-08T01:16:23;29.63;;;26.43;;
9924;SDS011;5001;51.674;7.868;2024-03-08T01:18:50;31.30;;;27.03;;
9924;SDS011;5001;51.674;7.868;2024-03-08T01:21:17;30.20;;;27.00;;
9924;SDS011;5001;51.674;7.868;2024-03-08T01:23:44;29.07;;;26.07;;
9924;SDS011;5001;51.674;7.868;2024-03-08T01:26:11;31.77;;;28.20;;
9924;SDS011;5001;51.674;7.868;2024-03-08T01:28:38;28.13;;;25.27;;
9924;SDS011;5001;51.674;7.868;2024-03-08T01:31:05;29.90;;;26.47;;
9924;SDS011;5001;51.674;7.868;2024-03-08T01:33:32;28.93;;;25.83;;
9924;SDS011;5001;51.674;7.868;2024-03-08T01:36:00;29.53;;;26.43;;
9924;SDS011;5001;51.674;7.868;2024-03-08T01:38:27;32.90;;;28.23;;
9924;SDS011;5001;51.674;7.868;2024-03-08T01:40:54;30.33;;;26.73;;
9924;SDS011;5001;51.674;7.868;2024-03-08T01:43:21;29.83;;;25.87;;
9924;SDS011;5001;51.674;7.868;2024-03-08T01:45:57;28.53;;;25.63;;
9924;SDS011;5001;51.674;7.868;2024-03-08T01:48:28;30.17;;;27.07;;
9924;SDS011;5001;51.674;7.868;2024-03-08T01:50:56;28.77;;;25.87;;
9924;SDS011;5001;51.674;7.868;2024-03-08T01:53:24;31.10;;;27.80;;
9924;SDS011;5001;51.674;7.868;2024-03-08T01:55:53;30.13;;;26.87;;
9924;SDS011;5001;51.674;7.868;2024-03-08T01:58:22;33.20;;;26.17;;
9924;SDS011;5001;51.674;7.868;2024-03-08T02:00:49;31.00;;;27.57;;
9924;SDS011;5001;51.674;7.868;2024-03-08T02:03:17;30.63;;;27.37;;
9924;SDS011;5001;51.674;7.868;2024-03-08T02:05:44;31.17;;;27.40;;
9924;SDS011;5001;51.674;7.868;2024-03-08T02:08:11;28.63;;;25.37;;
9924;SDS011;5001;51.674;7.868;2024-03-08T02:10:46;31.17;;;26.00;;
9924;SDS011;5001;51.674;7.868;2024-03-08T02:13:13;29.60;;;26.50;;
9924;SDS011;5001;51.674;7.868;2024-03-08T02:15:59;31.77;;;28.13;;
9924;SDS011;5001;51.674;7.868;2024-03-08T02:18:30;31.07;;;26.67;;
9924;SDS011;5001;51.674;7.868;2024-03-08T02:21:01;31.40;;;26.27;;
9924;SDS011;5001;51.674;7.868;2024-03-08T02:23:29;38.53;;;27.17;;
9924;SDS011;5001;51.674;7.868;2024-03-08T02:25:56;29.73;;;26.53;;
9924;SDS011;5001;51.674;7.868;2024-03-08T02:28:24;31.80;;;27.00;;
9924;SDS011;5001;51.674;7.868;2024-03-08T02:30:51;33.33;;;26.13;;
9924;SDS011;5001;51.674;7.868;2024-03-08T02:33:25;31.63;;;27.40;;
9924;SDS011;5001;51.674;7.868;2024-03-08T02:35:54;31.00;;;27.40;;
9924;SDS011;5001;51.674;7.868;2024-03-08T02:38:22;30.10;;;26.97;;
9924;SDS011;5001;51.674;7.868;2024-03-08T02:40:52;32.70;;;26.07;;
9924;SDS011;5001;51.674;7.868;2024-03-08T02:43:20;32.20;;;27.03;;
9924;SDS011;5001;51.674;7.868;2024-03-08T02:45:51;32.63;;;26.33;;
9924;SDS011;5001;51.674;7.868;2024-03-08T02:48:21;28.50;;;25.50;;
9924;SDS011;5001;51.674;7.868;2024-03-08T02:50:49;28.17;;;25.37;;
9924;SDS011;5001;51.674;7.868;2024-03-08T02:53:17;32.67;;;27.33;;
9924;SDS011;5001;51.674;7.868;2024-03-08T02:55:46;34.30;;;27.37;;
9924;SDS011;5001;51.674;7.868;2024-03-08T02:58:13;32.73;;;28.73;;
9924;SDS011;5001;51.674;7.868;2024-03-08T03:04:41;34.17;;;27.93;;
9924;SDS011;5001;51.674;7.868;2024-03-08T03:07:08;31.10;;;27.80;;
9924;SDS011;5001;51.674;7.868;2024-03-08T03:09:35;32.50;;;28.30;;
9924;SDS011;5001;51.674;7.868;2024-03-08T03:12:02;44.00;;;27.73;;
9924;SDS011;5001;51.674;7.868;2024-03-08T03:14:29;32.57;;;28.13;;
9924;SDS011;5001;51.674;7.868;2024-03-08T03:16:57;37.20;;;28.87;;
9924;SDS011;5001;51.674;7.868;2024-03-08T03:19:24;33.63;;;28.30;;
9924;SDS011;5001;51.674;7.868;2024-03-08T03:21:51;32.63;;;28.07;;
9924;SDS011;5001;51.674;7.868;2024-03-08T03:24:19;32.50;;;28.80;;
9924;SDS011;5001;51.674;7.868;2024-03-08T03:26:47;31.00;;;27.67;;
9924;SDS011;5001;51.674;7.868;2024-03-08T03:29:15;30.63;;;27.53;;
9924;SDS011;5001;51.674;7.868;2024-03-08T03:31:43;30.87;;;27.63;;
9924;SDS011;5001;51.674;7.868;2024-03-08T03:34:13;35.07;;;29.03;;
9924;SDS011;5001;51.674;7.868;2024-03-08T03:36:40;32.63;;;28.33;;
9924;SDS011;5001;51.674;7.868;2024-03-08T03:39:09;36.90;;;27.10;;
9924;SDS011;5001;51.674;7.868;2024-03-08T03:41:42;30.43;;;27.20;;
9924;SDS011;5001;51.674;7.868;2024-03-08T03:44:12;36.00;;;28.83;;
9924;SDS011;5001;51.674;7.868;2024-03-08T03:46:42;36.63;;;28.90;;
9924;SDS011;5001;51.674;7.868;2024-03-08T03:49:13;30.20;;;27.00;;
9924;SDS011;5001;51.674;7.868;2024-03-08T03:51:40;36.77;;;28.87;;
9924;SDS011;5001;51.674;7.868;2024-03-08T03:54:06;34.43;;;28.20;;
9924;SDS011;5001;51.674;7.868;2024-03-08T03:56:34;32.43;;;26.50;;
9924;SDS011;5001;51.674;7.868;2024-03-08T03:59:00;29.73;;;26.43;;
9924;SDS011;5001;51.674;7.868;2024-03-08T04:01:27;31.67;;;28.30;;
9924;SDS011;5001;51.674;7.868;2024-03-08T04:03:56;30.77;;;26.73;;
9924;SDS011;5001;51.674;7.868;2024-03-08T04:06:22;33.03;;;28.07;;
9924;SDS011;5001;51.674;7.868;2024-03-08T04:08:50;36.63;;;28.10;;
9924;SDS011;5001;51.674;7.868;2024-03-08T04:11:17;32.63;;;28.87;;
9924;SDS011;5001;51.674;7.868;2024-03-08T04:13:44;31.93;;;28.53;;
9924;SDS011;5001;51.674;7.868;2024-03-08T04:16:11;31.00;;;27.30;;
9924;SDS011;5001;51.674;7.868;2024-03-08T04:18:38;34.60;;;27.80;;
9924;SDS011;5001;51.674;7.868;2024-03-08T04:21:05;33.67;;;28.13;;
9924;SDS011;5001;51.674;7.868;2024-03-08T04:23:33;31.20;;;28.00;;
9924;SDS011;5001;51.674;7.868;2024-03-08T04:26:02;32.93;;;28.43;;
9924;SDS011;5001;51.674;7.868;2024-03-08T04:28:30;31.43;;;28.03;;
9924;SDS011;5001;51.674;7.868;2024-03-08T04:30:58;31.53;;;27.17;;
9924;SDS011;5001;51.674;7.868;2024-03-08T04:33:27;35.77;;;27.87;;
9924;SDS011;5001;51.674;7.868;2024-03-08T04:35:54;32.40;;;27.97;;
9924;SDS011;5001;51.674;7.868;2024-03-08T04:38:21;38.63;;;28.07;;
9924;SDS011;5001;51.674;7.868;2024-03-08T04:40:49;35.07;;;29.07;;
9924;SDS011;5001;51.674;7.868;2024-03-08T04:43:16;30.10;;;26.93;;
9924;SDS011;5001;51.674;7.868;2024-03-08T04:45:45;36.00;;;28.87;;
9924;SDS011;5001;51.674;7.868;2024-03-08T04:48:11;31.67;;;28.23;;
9924;SDS011;5001;51.674;7.868;2024-03-08T04:50:39;32.77;;;27.27;;
9924;SDS011;5001;51.674;7.868;2024-03-08T04:53:06;31.17;;;27.53;;
9924;SDS011;5001;51.674;7.868;2024-03-08T04:55:34;31.27;;;27.90;;
9924;SDS011;5001;51.674;7.868;2024-03-08T04:58:01;30.67;;;26.97;;
9924;SDS011;5001;51.674;7.868;2024-03-08T05:00:30;32.63;;;27.90;;
9924;SDS011;5001;51.674;7.868;2024-03-08T05:02:58;32.33;;;28.70;;
9924;SDS011;5001;51.674;7.868;2024-03-08T05:05:25;33.17;;;29.53;;
9924;SDS011;5001;51.674;7.868;2024-03-08T05:07:55;40.10;;;28.57;;
9924;SDS011;5001;51.674;7.868;2024-03-08T05:10:22;32.53;;;27.30;;
9924;SDS011;5001;51.674;7.868;2024-03-08T05:12:48;34.57;;;28.87;;
9924;SDS011;5001;51.674;7.868;2024-03-08T05:15:17;30.83;;;27.60;;
9924;SDS011;5001;51.674;7.868;2024-03-08T05:17:44;38.00;;;28.27;;
9924;SDS011;5001;51.674;7.868;2024-03-08T05:20:11;32.80;;;28.63;;
9924;SDS011;5001;51.674;7.868;2024-03-08T05:22:39;34.00;;;29.03;;
9924;SDS011;5001;51.674;7.868;2024-03-08T05:25:06;33.83;;;27.93;;
9924;SDS011;5001;51.674;7.868;2024-03-08T05:27:38;32.07;;;28.70;;
9924;SDS011;5001;51.674;7.868;2024-03-08T05:30:05;35.33;;;28.87;;
9924;SDS011;5001;51.674;7.868;2024-03-08T05:32:32;33.10;;;28.13;;
9924;SDS011;5001;51.674;7.868;2024-03-08T05:35:00;39.03;;;31.80;;
9924;SDS011;5001;51.674;7.868;2024-03-08T05:37:27;33.77;;;29.77;;
9924;SDS011;5001;51.674;7.868;2024-03-08T05:39:53;34.60;;;28.20;;
9924;SDS011;5001;51.674;7.868;2024-03-08T05:42:20;34.03;;;29.80;;
9924;SDS011;5001;51.674;7.868;2024-03-08T05:44:47;36.50;;;28.87;;
9924;SDS011;5001;51.674;7.868;2024-03-08T05:47:16;39.63;;;31.40;;
9924;SDS011;5001;51.674;7.868;2024-03-08T05:49:44;40.83;;;30.13;;
9924;SDS011;5001;51.674;7.868;2024-03-08T05:52:11;35.30;;;30.10;;
9924;SDS011;5001;51.674;7.868;2024-03-08T05:54:38;36.03;;;30.57;;
9924;SDS011;5001;51.674;7.868;2024-03-08T05:57:07;35.67;;;30.20;;
9924;SDS011;5001;51.674;7.868;2024-03-08T05:59:34;34.90;;;29.77;;
9924;SDS011;5001;51.674;7.868;2024-03-08T06:02:01;36.37;;;29.63;;
9924;SDS011;5001;51.674;7.868;2024-03-08T06:04:28;39.67;;;30.23;;
9924;SDS011;5001;51.674;7.868;2024-03-08T06:06:55;38.00;;;29.40;;
9924;SDS011;5001;51.674;7.868;2024-03-08T06:09:23;41.10;;;31.47;;
9924;SDS011;5001;51.674;7.868;2024-03-08T06:11:51;35.53;;;30.20;;
9924;SDS011;5001;51.674;7.868;2024-03-08T06:14:20;37.20;;;29.83;;
9924;SDS011;5001;51.674;7.868;2024-03-08T06:16:47;37.87;;;28.53;;
9924;SDS011;5001;51.674;7.868;2024-03-08T06:19:16;37.00;;;29.33;;
9924;SDS011;5001;51.674;7.868;2024-03-08T06:21:44;32.80;;;28.70;;
9924;SDS011;5001;51.674;7.868;2024-03-08T06:24:11;39.70;;;30.07;;
9924;SDS011;5001;51.674;7.868;2024-03-08T06:26:39;35.03;;;28.40;;
9924;SDS011;5001;51.674;7.868;2024-03-08T06:29:06;33.10;;;29.27;;
9924;SDS011;5001;51.674;7.868;2024-03-08T06:31:33;36.63;;;29.90;;
9924;SDS011;5001;51.674;7.868;2024-03-08T06:34:00;35.57;;;28.50;;
9924;SDS011;5001;51.674;7.868;2024-03-08T06:36:28;34.63;;;28.47;;
9924;SDS011;5001;51.674;7.868;2024-03-08T06:38:55;33.57;;;28.17;;
9924;SDS011;5001;51.674;7.868;2024-03-08T06:41:24;31.90;;;28.30;;
9924;SDS011;5001;51.674;7.868;2024-03-08T06:43:51;39.00;;;30.00;;
9924;SDS011;5001;51.674;7.868;2024-03-08T06:46:24;32.87;;;27.70;;
9924;SDS011;5001;51.674;7.868;2024-03-08T06:48:51;34.97;;;28.97;;
9924;SDS011;5001;51.674;7.868;2024-03-08T06:51:18;34.53;;;27.83;;
9924;SDS011;5001;51.674;7.868;2024-03-08T06:53:45;34.93;;;29.03;;
9924;SDS011;5001;51.674;7.868;2024-03-08T06:56:13;35.17;;;28.07;;
9924;SDS011;5001;51.674;7.868;2024-03-08T06:58:40;34.33;;;28.53;;
9924;SDS011;5001;51.674;7.868;2024-03-08T07:01:07;31.73;;;28.43;;
9924;SDS011;5001;51.674;7.868;2024-03-08T07:03:44;32.97;;;29.37;;
9924;SDS011;5001;51.674;7.868;2024-03-08T07:10:11;33.33;;;28.67;;
9924;SDS011;5001;51.674;7.868;2024-03-08T07:12:41;32.87;;;28.77;;
9924;SDS011;5001;51.674;7.868;2024-03-08T07:15:08;33.10;;;28.80;;
9924;SDS011;5001;51.674;7.868;2024-03-08T07:17:40;34.30;;;28.60;;
9924;SDS011;5001;51.674;7.868;2024-03-08T07:20:07;31.73;;;28.33;;
9924;SDS011;5001;51.674;7.868;2024-03-08T07:22:38;39.33;;;29.77;;
9924;SDS011;5001;51.674;7.868;2024-03-08T07:25:05;33.40;;;29.20;;
9924;SDS011;5001;51.674;7.868;2024-03-08T07:30:18;35.27;;;29.03;;
9924;SDS011;5001;51.674;7.868;2024-03-08T07:33:04;36.30;;;28.90;;
9924;SDS011;5001;51.674;7.868;2024-03-08T07:35:33;38.07;;;30.47;;
9924;SDS011;5001;51.674;7.868;2024-03-08T07:38:04;34.23;;;30.50;;
9924;SDS011;5001;51.674;7.868;2024-03-08T07:40:34;32.40;;;28.57;;
9924;SDS011;5001;51.674;7.868;2024-03-08T07:43:07;34.93;;;29.37;;
9924;SDS011;5001;51.674;7.868;2024-03-08T07:45:34;36.03;;;30.37;;
9924;SDS011;5001;51.674;7.868;2024-03-08T07:48:02;35.10;;;30.80;;
9924;SDS011;5001;51.674;7.868;2024-03-08T07:50:30;35.17;;;29.53;;
9924;SDS011;5001;51.674;7.868;2024-03-08T07:52:59;33.63;;;30.03;;
9924;SDS011;5001;51.674;7.868;2024-03-08T07:55:28;33.37;;;29.73;;
9924;SDS011;5001;51.674;7.868;2024-03-08T07:57:55;34.10;;;30.47;;
9924;SDS011;5001;51.674;7.868;2024-03-08T08:00:22;36.30;;;31.03;;
9924;SDS011;5001;51.674;7.868;2024-03-08T08:02:50;32.83;;;29.30;;
9924;SDS011;5001;51.674;7.868;2024-03-08T08:05:17;34.30;;;30.10;;
9924;SDS011;5001;51.674;7.868;2024-03-08T08:07:45;34.50;;;30.33;;
9924;SDS011;5001;51.674;7.868;2024-03-08T08:10:16;35.43;;;30.47;;
9924;SDS011;5001;51.674;7.868;2024-03-08T08:12:49;34.77;;;28.43;;
9924;SDS011;5001;51.674;7.868;2024-03-08T08:15:16;33.00;;;28.73;;
9924;SDS011;5001;51.674;7.868;2024-03-08T08:17:44;34.70;;;30.27;;
9924;SDS011;5001;51.674;7.868;2024-03-08T08:20:12;34.30;;;28.63;;
9924;SDS011;5001;51.674;7.868;2024-03-08T08:22:39;34.37;;;29.57;;
9924;SDS011;5001;51.674;7.868;2024-03-08T08:25:07;40.77;;;29.93;;
9924;SDS011;5001;51.674;7.868;2024-03-08T08:27:35;32.23;;;28.73;;
9924;SDS011;5001;51.674;7.868;2024-03-08T08:30:06;36.67;;;29.83;;
9924;SDS011;5001;51.674;7.868;2024-03-08T08:32:35;34.47;;;29.23;;
9924;SDS011;5001;51.674;7.868;2024-03-08T08:35:03;32.23;;;28.23;;
9924;SDS011;5001;51.674;7.868;2024-03-08T08:37:41;37.17;;;29.10;;
9924;SDS011;5001;51.674;7.868;2024-03-08T08:40:08;33.10;;;27.50;;
9924;SDS011;5001;51.674;7.868;2024-03-08T08:42:36;32.73;;;27.50;;
9924;SDS011;5001;51.674;7.868;2024-03-08T08:45:07;34.33;;;29.27;;
9924;SDS011;5001;51.674;7.868;2024-03-08T08:47:43;33.17;;;27.83;;
9924;SDS011;5001;51.674;7.868;2024-03-08T08:50:12;31.47;;;27.93;;
9924;SDS011;5001;51.674;7.868;2024-03-08T08:52:39;32.27;;;27.97;;
9924;SDS011;5001;51.674;7.868;2024-03-08T08:55:07;34.63;;;28.47;;
9924;SDS011;5001;51.674;7.868;2024-03-08T08:57:34;36.23;;;28.53;;
9924;SDS011;5001;51.674;7.868;2024-03-08T09:00:02;36.67;;;28.60;;
9924;SDS011;5001;51.674;7.868;2024-03-08T09:02:34;36.13;;;29.13;;
9924;SDS011;5001;51.674;7.868;2024-03-08T09:05:01;33.27;;;27.93;;
9924;SDS011;5001;51.674;7.868;2024-03-08T09:07:29;32.47;;;27.73;;
9924;SDS011;5001;51.674;7.868;2024-03-08T09:09:56;32.60;;;28.50;;
9924;SDS011;5001;51.674;7.868;2024-03-08T09:12:25;33.13;;;28.53;;
9924;SDS011;5001;51.674;7.868;2024-03-08T09:14:52;32.03;;;28.70;;
9924;SDS011;5001;51.674;7.868;2024-03-08T09:17:20;34.38;;;29.55;;
9924;SDS011;5001;51.674;7.868;2024-03-08T09:19:48;34.08;;;29.55;;
9924;SDS011;5001;51.674;7.868;2024-03-08T09:22:15;33.63;;;30.00;;
9924;SDS011;5001;51.674;7.868;2024-03-08T09:24:42;35.58;;;30.70;;
9924;SDS011;5001;51.674;7.868;2024-03-08T09:27:10;33.38;;;29.65;;
9924;SDS011;5001;51.674;7.868;2024-03-08T09:29:37;33.75;;;30.23;;
9924;SDS011;5001;51.674;7.868;2024-03-08T09:32:04;35.78;;;31.20;;
9924;SDS011;5001;51.674;7.868;2024-03-08T09:34:31;34.15;;;30.45;;
9924;SDS011;5001;51.674;7.868;2024-03-08T09:37:03;33.72;;;30.27;;
9924;SDS011;5001;51.674;7.868;2024-03-08T09:39:31;34.08;;;30.42;;
9924;SDS011;5001;51.674;7.868;2024-03-08T09:42:03;34.83;;;31.17;;
9924;SDS011;5001;51.674;7.868;2024-03-08T09:44:31;36.58;;;31.63;;
9924;SDS011;5001;51.674;7.868;2024-03-08T09:46:59;36.80;;;31.55;;
9924;SDS011;5001;51.674;7.868;2024-03-08T09:49:28;34.55;;;30.88;;
9924;SDS011;5001;51.674;7.868;2024-03-08T09:51:55;35.92;;;32.05;;
9924;SDS011;5001;51.674;7.868;2024-03-08T09:54:23;36.90;;;32.88;;
9924;SDS011;5001;51.674;7.868;2024-03-08T09:56:54;33.83;;;30.30;;
9924;SDS011;5001;51.674;7.868;2024-03-08T09:59:21;33.58;;;29.98;;
9924;SDS011;5001;51.674;7.868;2024-03-08T10:01:48;34.38;;;30.77;;
9924;SDS011;5001;51.674;7.868;2024-03-08T10:04:15;36.38;;;32.50;;
9924;SDS011;5001;51.674;7.868;2024-03-08T10:06:43;34.90;;;31.27;;
9924;SDS011;5001;51.674;7.868;2024-03-08T10:09:14;33.85;;;30.35;;
9924;SDS011;5001;51.674;7.868;2024-03-08T10:11:42;36.63;;;32.55;;
9924;SDS011;5001;51.674;7.868;2024-03-08T10:14:09;33.63;;;30.15;;
9924;SDS011;5001;51.674;7.868;2024-03-08T10:16:38;33.83;;;30.30;;
9924;SDS011;5001;51.674;7.868;2024-03-08T10:19:06;35.25;;;31.55;;
9924;SDS011;5001;51.674;7.868;2024-03-08T10:21:34;32.55;;;29.33;;
9924;SDS011;5001;51.674;7.868;2024-03-08T10:24:04;34.42;;;29.60;;
9924;SDS011;5001;51.674;7.868;2024-03-08T10:26:31;44.15;;;30.40;;
9924;SDS011;5001;51.674;7.868;2024-03-08T10:28:59;32.70;;;29.30;;
9924;SDS011;5001;51.674;7.868;2024-03-08T10:31:25;33.97;;;30.38;;
9924;SDS011;5001;51.674;7.868;2024-03-08T10:33:52;33.83;;;30.30;;
9924;SDS011;5001;51.674;7.868;2024-03-08T10:36:20;35.13;;;30.83;;
9924;SDS011;5001;51.674;7.868;2024-03-08T10:38:47;34.70;;;30.25;;
9924;SDS011;5001;51.674;7.868;2024-03-08T10:41:19;34.60;;;30.85;;
9924;SDS011;5001;51.674;7.868;2024-03-08T10:46:38;34.08;;;30.58;;
9924;SDS011;5001;51.674;7.868;2024-03-08T10:49:16;32.60;;;29.35;;
9924;SDS011;5001;51.674;7.868;2024-03-08T10:51:44;34.00;;;30.42;;
9924;SDS011;5001;51.674;7.868;2024-03-08T10:54:12;33.22;;;29.83;;
9924;SDS011;5001;51.674;7.868;2024-03-08T10:56:42;33.78;;;30.15;;
9924;SDS011;5001;51.674;7.868;2024-03-08T10:59:09;31.45;;;28.15;;
9924;SDS011;5001;51.674;7.868;2024-03-08T11:01:37;34.05;;;30.55;;
9924;SDS011;5001;51.674;7.868;2024-03-08T11:04:06;34.47;;;29.90;;
9924;SDS011;5001;51.674;7.868;2024-03-08T11:14:48;32.90;;;29.52;;
9924;SDS011;5001;51.674;7.868;2024-03-08T11:17:20;32.75;;;29.55;;
9924;SDS011;5001;51.674;7.868;2024-03-08T11:20:00;33.53;;;29.90;;
9924;SDS011;5001;51.674;7.868;2024-03-08T11:22:32;34.28;;;30.50;;
9924;SDS011;5001;51.674;7.868;2024-03-08T11:25:03;33.08;;;28.75;;
9924;SDS011;5001;51.674;7.868;2024-03-08T11:27:36;34.17;;;30.45;;
9924;SDS011;5001;51.674;7.868;2024-03-08T11:30:04;32.80;;;29.27;;
9924;SDS011;5001;51.674;7.868;2024-03-08T11:32:44;32.85;;;29.50;;
9924;SDS011;5001;51.674;7.868;2024-03-08T11:35:20;32.60;;;29.20;;
9924;SDS011;5001;51.674;7.868;2024-03-08T11:37:47;32.55;;;29.25;;
9924;SDS011;5001;51.674;7.868;2024-03-08T11:40:15;32.88;;;29.42;;
9924;SDS011;5001;51.674;7.868;2024-03-08T11:42:46;32.47;;;29.27;;
9924;SDS011;5001;51.674;7.868;2024-03-08T11:45:15;31.45;;;28.25;;
9924;SDS011;5001;51.674;7.868;2024-03-08T11:47:44;31.30;;;27.95;;
9924;SDS011;5001;51.674;7.868;2024-03-08T11:50:16;36.22;;;28.27;;
9924;SDS011;5001;51.674;7.868;2024-03-08T11:52:46;31.33;;;27.45;;
9924;SDS011;5001;51.674;7.868;2024-03-08T11:55:14;31.63;;;28.42;;
9924;SDS011;5001;51.674;7.868;2024-03-08T11:57:41;33.63;;;29.63;;
9924;SDS011;5001;51.674;7.868;2024-03-08T12:00:16;32.67;;;29.08;;
9924;SDS011;5001;51.674;7.868;2024-03-08T12:03:01;32.22;;;28.92;;
9924;SDS011;5001;51.674;7.868;2024-03-08T12:05:29;31.83;;;28.60;;
9924;SDS011;5001;51.674;7.868;2024-03-08T12:07:57;32.20;;;28.67;;
9924;SDS011;5001;51.674;7.868;2024-03-08T12:10:25;33.05;;;29.65;;
9924;SDS011;5001;51.674;7.868;2024-03-08T12:12:53;33.35;;;29.92;;
9924;SDS011;5001;51.674;7.868;2024-03-08T12:15:22;33.75;;;30.17;;
9924;SDS011;5001;51.674;7.868;2024-03-08T12:17:50;32.40;;;29.00;;
9924;SDS011;5001;51.674;7.868;2024-03-08T12:20:22;32.15;;;28.85;;
9924;SDS011;5001;51.674;7.868;2024-03-08T12:22:56;32.15;;;28.77;;
9924;SDS011;5001;51.674;7.868;2024-03-08T12:25:27;31.60;;;28.40;;
9924;SDS011;5001;51.674;7.868;2024-03-08T12:28:08;32.00;;;28.70;;
9924;SDS011;5001;51.674;7.868;2024-03-08T12:30:45;31.63;;;28.35;;
9924;SDS011;5001;51.674;7.868;2024-03-08T12:33:14;32.80;;;29.00;;
9924;SDS011;5001;51.674;7.868;2024-03-08T12:35:41;31.65;;;28.50;;
9924;SDS011;5001;51.674;7.868;2024-03-08T12:38:21;32.65;;;29.25;;
9924;SDS011;5001;51.674;7.868;2024-03-08T12:40:56;32.53;;;28.90;;
9924;SDS011;5001;51.674;7.868;2024-03-08T12:43:25;32.50;;;29.10;;
9924;SDS011;5001;51.674;7.868;2024-03-08T12:48:48;32.38;;;28.90;;
9924;SDS011;5001;51.674;7.868;2024-03-08T12:51:16;31.80;;;28.47;;
9924;SDS011;5001;51.674;7.868;2024-03-08T12:53:44;33.57;;;30.07;;
9924;SDS011;5001;51.674;7.868;2024-03-08T12:56:19;31.97;;;28.57;;
9924;SDS011;5001;51.674;7.868;2024-03-08T12:58:54;32.47;;;28.60;;
9924;SDS011;5001;51.674;7.868;2024-03-08T13:01:22;34.03;;;28.47;;
9924;SDS011;5001;51.674;7.868;2024-03-08T13:03:49;32.77;;;29.33;;
9924;SDS011;5001;51.674;7.868;2024-03-08T13:06:16;30.90;;;27.80;;
9924;SDS011;5001;51.674;7.868;2024-03-08T13:08:44;38.87;;;29.43;;
9924;SDS011;5001;51.674;7.868;2024-03-08T13:11:11;32.87;;;29.37;;
9924;SDS011;5001;51.674;7.868;2024-03-08T13:13:38;33.57;;;29.97;;
9924;SDS011;5001;51.674;7.868;2024-03-08T13:16:06;32.87;;;29.00;;
9924;SDS011;5001;51.674;7.868;2024-03-08T13:18:35;31.77;;;28.37;;
9924;SDS011;5001;51.674;7.868;2024-03-08T13:21:03;32.33;;;28.90;;
9924;SDS011;5001;51.674;7.868;2024-03-08T13:23:34;33.70;;;30.00;;
9924;SDS011;5001;51.674;7.868;2024-03-08T13:26:07;32.57;;;29.03;;
9924;SDS011;5001;51.674;7.868;2024-03-08T13:28:35;32.90;;;29.30;;
9924;SDS011;5001;51.674;7.868;2024-03-08T13:31:06;32.30;;;28.43;;
9924;SDS011;5001;51.674;7.868;2024-03-08T13:33:33;33.93;;;29.50;;
9924;SDS011;5001;51.674;7.868;2024-03-08T13:36:03;32.23;;;28.83;;
9924;SDS011;5001;51.674;7.868;2024-03-08T13:38:35;32.27;;;28.80;;
9924;SDS011;5001;51.674;7.868;2024-03-08T13:41:03;31.83;;;28.50;;
9924;SDS011;5001;51.674;7.868;2024-03-08T13:43:30;32.87;;;29.40;;
9924;SDS011;5001;51.674;7.868;2024-03-08T13:46:01;32.50;;;28.97;;
9924;SDS011;5001;51.674;7.868;2024-03-08T13:48:28;34.03;;;27.97;;
9924;SDS011;5001;51.674;7.868;2024-03-08T13:50:55;30.77;;;27.47;;
9924;SDS011;5001;51.674;7.868;2024-03-08T13:53:23;31.07;;;27.77;;
9924;SDS011;5001;51.674;7.868;2024-03-08T13:55:50;33.23;;;29.83;;
9924;SDS011;5001;51.674;7.868;2024-03-08T13:58:17;31.97;;;28.57;;
9924;SDS011;5001;51.674;7.868;2024-03-08T14:00:46;32.90;;;28.97;;
9924;SDS011;5001;51.674;7.868;2024-03-08T14:03:14;31.93;;;28.53;;
9924;SDS011;5001;51.674;7.868;2024-03-08T14:05:41;30.67;;;27.37;;
9924;SDS011;5001;51.674;7.868;2024-03-08T14:08:09;32.60;;;29.17;;
9924;SDS011;5001;51.674;7.868;2024-03-08T14:10:38;33.30;;;29.73;;
9924;SDS011;5001;51.674;7.868;2024-03-08T14:13:05;30.93;;;27.77;;
9924;SDS011;5001;51.674;7.868;2024-03-08T14:15:33;32.37;;;28.87;;
9924;SDS011;5001;51.674;7.868;2024-03-08T14:18:02;33.13;;;29.53;;
9924;SDS011;5001;51.674;7.868;2024-03-08T14:20:29;33.37;;;29.40;;
9924;SDS011;5001;51.674;7.868;2024-03-08T14:22:57;32.73;;;29.33;;
9924;SDS011;5001;51.674;7.868;2024-03-08T14:25:24;34.77;;;29.70;;
9924;SDS011;5001;51.674;7.868;2024-03-08T14:27:51;33.13;;;29.63;;
9924;SDS011;5001;51.674;7.868;2024-03-08T14:30:29;32.73;;;28.80;;
9924;SDS011;5001;51.674;7.868;2024-03-08T14:33:05;34.03;;;29.90;;
9924;SDS011;5001;51.674;7.868;2024-03-08T14:35:34;31.03;;;27.93;;
9924;SDS011;5001;51.674;7.868;2024-03-08T14:38:01;34.57;;;30.93;;
9924;SDS011;5001;51.674;7.868;2024-03-08T14:40:30;33.53;;;29.90;;
9924;SDS011;5001;51.674;7.868;2024-03-08T14:42:58;31.30;;;27.83;;
9924;SDS011;5001;51.674;7.868;2024-03-08T14:45:26;34.63;;;29.37;;
9924;SDS011;5001;51.674;7.868;2024-03-08T14:47:53;33.07;;;29.57;;
9924;SDS011;5001;51.674;7.868;2024-03-08T14:50:21;33.00;;;29.17;;
9924;SDS011;5001;51.674;7.868;2024-03-08T14:52:50;31.37;;;28.17;;
9924;SDS011;5001;51.674;7.868;2024-03-08T14:55:18;32.53;;;29.07;;
9924;SDS011;5001;51.674;7.868;2024-03-08T14:57:48;32.27;;;29.07;;
9924;SDS011;5001;51.674;7.868;2024-03-08T15:00:18;31.93;;;28.53;;
9924;SDS011;5001;51.674;7.868;2024-03-08T15:03:02;35.17;;;29.20;;
9924;SDS011;5001;51.674;7.868;2024-03-08T15:05:31;33.43;;;29.83;;
9924;SDS011;5001;51.674;7.868;2024-03-08T15:08:02;37.73;;;30.60;;
9924;SDS011;5001;51.674;7.868;2024-03-08T15:10:37;32.57;;;29.07;;
9924;SDS011;5001;51.674;7.868;2024-03-08T15:13:06;33.73;;;29.03;;
9924;SDS011;5001;51.674;7.868;2024-03-08T15:15:41;35.63;;;29.40;;
9924;SDS011;5001;51.674;7.868;2024-03-08T15:18:12;34.10;;;29.33;;
9924;SDS011;5001;51.674;7.868;2024-03-08T15:20:39;36.20;;;29.70;;